Time;durP1;ratioP1;P1;durP2;ratioP2;P2;SDS_P1;SDS_P2;PMS_P1;PMS_P2;Temp;Humidity;BMP_temperature;BMP_pressure;BME280_temperature;BME280_humidity;BME280_pressure;Samples;Min_cycle;Max_cycle;Signal;HPM_P1;HPM_P2
2022/08/29 00:01:34;;;;;;;50.10;46.53;;;15.80;99.90;;;;;;5052114;28;20182;-76
2022/08/29 00:04:01;;;;;;;49.00;46.10;;;15.80;99.90;;;;;;5053226;28;20710;-76
2022/08/29 00:06:27;;;;;;;54.87;51.73;;;15.80;99.90;;;;;;5052775;28;20244;-78
2022/08/29 00:08:53;;;;;;;44.40;41.43;;;15.80;99.90;;;;;;5033796;28;20735;-77
2022/08/29 00:11:19;;;;;;;52.70;49.37;;;15.80;99.90;;;;;;5034031;28;20270;-77
2022/08/29 00:13:45;;;;;;;50.30;47.33;;;15.70;99.90;;;;;;5032390;28;20800;-77
2022/08/29 00:16:11;;;;;;;46.13;43.10;;;15.70;99.90;;;;;;5035392;28;20190;-77
2022/08/29 00:18:37;;;;;;;63.30;59.50;;;15.70;99.90;;;;;;5040269;28;20199;-79
2022/08/29 00:21:04;;;;;;;56.10;52.63;;;15.70;99.90;;;;;;5039105;28;20253;-77
2022/08/29 00:23:30;;;;;;;50.43;47.20;;;15.70;99.90;;;;;;5039049;28;20174;-78
2022/08/29 00:25:56;;;;;;;72.53;68.53;;;15.70;99.90;;;;;;5035602;28;20187;-78
2022/08/29 00:28:22;;;;;;;65.50;61.50;;;15.60;99.90;;;;;;5042433;28;20633;-78
2022/08/29 00:30:48;;;;;;;81.43;76.90;;;15.60;99.90;;;;;;5052440;28;20659;-78
2022/08/29 00:33:16;;;;;;;84.83;80.03;;;15.60;99.90;;;;;;5052477;28;20194;-78
2022/08/29 00:35:43;;;;;;;86.60;81.70;;;15.60;99.90;;;;;;5060858;28;20316;-78
2022/08/29 00:38:13;;;;;;;81.13;76.50;;;15.60;99.90;;;;;;5041010;28;20653;-78
2022/08/29 00:40:43;;;;;;;62.90;59.30;;;15.60;99.90;;;;;;5031380;28;20257;-77
2022/08/29 00:43:09;;;;;;;72.90;68.97;;;15.50;99.90;;;;;;5030643;28;20191;-77
2022/08/29 00:46:05;;;;;;;76.03;71.20;;;15.50;99.90;;;;;;5030995;28;20179;-76
2022/08/29 00:48:34;;;;;;;76.90;72.13;;;15.40;99.90;;;;;;5033057;28;20229;-76
2022/08/29 00:51:03;;;;;;;89.53;84.63;;;15.40;99.90;;;;;;5050828;28;20209;-77
2022/08/29 00:53:37;;;;;;;85.43;80.50;;;15.30;99.90;;;;;;5050961;28;20186;-78
2022/08/29 00:56:06;;;;;;;49.23;45.90;;;15.30;99.90;;;;;;5052407;28;20227;-76
2022/08/29 00:58:40;;;;;;;43.33;40.10;;;15.40;99.90;;;;;;5036946;28;20199;-76
2022/08/29 01:01:07;;;;;;;43.67;40.93;;;15.40;99.90;;;;;;5031810;28;20666;-77
2022/08/29 01:03:34;;;;;;;49.50;46.30;;;15.40;99.90;;;;;;5031267;28;20214;-77
2022/08/29 01:06:02;;;;;;;47.50;44.40;;;15.40;99.90;;;;;;5032321;28;20183;-77
2022/08/29 01:08:29;;;;;;;45.47;42.63;;;15.40;99.90;;;;;;5042602;28;20585;-78
2022/08/29 01:13:43;;;;;;;37.40;34.80;;;15.40;99.90;;;;;;5053600;28;20203;-78
2022/08/29 01:16:11;;;;;;;61.20;57.33;;;15.40;99.90;;;;;;5061879;28;20200;-78
2022/08/29 01:18:39;;;;;;;96.37;90.87;;;15.40;99.90;;;;;;5044074;28;20203;-79
2022/08/29 01:21:35;;;;;;;136.77;128.87;;;15.30;99.90;;;;;;5032604;28;20183;-79
2022/08/29 01:24:25;;;;;;;99.67;94.17;;;15.30;99.90;;;;;;5031748;28;20191;-78
2022/08/29 01:26:51;;;;;;;59.20;55.37;;;15.10;99.90;;;;;;5031872;28;20206;-78
2022/08/29 01:29:18;;;;;;;42.70;39.93;;;15.20;99.90;;;;;;5049689;28;20227;-78
2022/08/29 01:31:47;;;;;;;39.50;37.07;;;15.20;99.90;;;;;;5050530;28;20182;-78
2022/08/29 01:34:15;;;;;;;43.60;40.50;;;15.10;99.90;;;;;;5049671;28;20265;-77
2022/08/29 01:36:59;;;;;;;29.70;27.70;;;15.10;99.90;;;;;;5050507;28;20214;-77
2022/08/29 01:39:29;;;;;;;20.33;18.83;;;15.10;99.90;;;;;;5031567;28;20179;-77
2022/08/29 01:41:58;;;;;;;26.23;24.53;;;15.10;99.90;;;;;;5029750;28;20277;-77
2022/08/29 01:44:25;;;;;;;32.47;30.23;;;15.10;99.90;;;;;;5031575;28;20217;-77
2022/08/29 01:46:54;;;;;;;45.73;42.50;;;15.10;99.90;;;;;;5030115;28;20305;-77
2022/08/29 01:49:21;;;;;;;53.17;49.67;;;15.10;99.90;;;;;;5044246;28;20178;-77
2022/08/29 01:51:47;;;;;;;35.27;32.83;;;15.00;99.90;;;;;;5053573;28;20193;-77
2022/08/29 01:54:14;;;;;;;40.77;38.07;;;15.00;99.90;;;;;;5054799;28;20545;-77
2022/08/29 01:56:45;;;;;;;55.43;52.03;;;15.00;99.90;;;;;;5045151;28;20206;-76
2022/08/29 01:59:15;;;;;;;37.37;34.83;;;14.90;99.90;;;;;;5034722;28;20181;-78
2022/08/29 02:01:58;;;;;;;26.00;23.93;;;14.90;99.90;;;;;;5033348;28;20175;-77
2022/08/29 02:04:24;;;;;;;20.67;19.00;;;14.90;99.90;;;;;;5033742;28;20179;-77
2022/08/29 02:06:51;;;;;;;14.53;13.13;;;14.90;99.90;;;;;;5043960;28;20194;-78
2022/08/29 02:09:17;;;;;;;15.20;14.20;;;14.90;99.90;;;;;;5053542;28;20232;-77
2022/08/29 02:11:45;;;;;;;21.37;19.77;;;14.90;99.90;;;;;;5054366;28;20278;-76
2022/08/29 02:14:11;;;;;;;25.73;23.70;;;14.90;99.90;;;;;;5054759;28;20182;-76
2022/08/29 02:16:37;;;;;;;19.70;18.10;;;14.90;99.90;;;;;;5051414;28;20256;-76
2022/08/29 02:19:03;;;;;;;28.90;26.93;;;14.90;99.90;;;;;;5042233;28;20557;-77
2022/08/29 02:21:29;;;;;;;31.10;29.03;;;14.90;99.90;;;;;;5034284;28;20175;-77
2022/08/29 02:23:59;;;;;;;40.53;37.80;;;14.70;99.90;;;;;;5034325;28;20187;-77
2022/08/29 02:26:25;;;;;;;30.80;27.80;;;14.70;99.90;;;;;;5038633;28;20206;-77
2022/08/29 02:28:51;;;;;;;20.70;19.10;;;14.70;99.90;;;;;;5052222;28;20749;-77
2022/08/29 02:31:19;;;;;;;18.97;17.57;;;14.70;99.90;;;;;;5053040;28;20177;-77
2022/08/29 02:33:46;;;;;;;14.23;12.87;;;14.70;99.90;;;;;;5052461;28;20182;-77
2022/08/29 02:36:12;;;;;;;18.47;17.03;;;14.60;99.90;;;;;;5051499;28;20186;-78
2022/08/29 02:38:38;;;;;;;16.23;14.73;;;14.70;99.90;;;;;;5045125;28;20285;-77
2022/08/29 02:41:06;;;;;;;16.10;14.90;;;14.70;99.90;;;;;;5058729;28;20179;-76
2022/08/29 02:43:32;;;;;;;13.50;12.40;;;14.60;99.90;;;;;;5062141;28;20182;-76
2022/08/29 02:45:58;;;;;;;29.37;27.37;;;14.50;99.90;;;;;;5052814;28;20174;-77
2022/08/29 02:48:25;;;;;;;49.17;46.17;;;14.50;99.90;;;;;;5033506;28;20607;-77
2022/08/29 02:50:54;;;;;;;42.13;38.97;;;14.50;99.90;;;;;;5033341;28;20570;-77
2022/08/29 02:53:23;;;;;;;51.13;47.77;;;14.50;99.90;;;;;;5035690;28;20205;-76
2022/08/29 02:55:50;;;;;;;51.63;48.00;;;14.40;99.90;;;;;;5035522;28;20187;-76
2022/08/29 02:58:18;;;;;;;55.50;51.73;;;14.40;99.90;;;;;;5050602;28;20221;-76
2022/08/29 03:00:44;;;;;;;61.57;58.03;;;14.30;99.90;;;;;;5051974;28;20185;-77
2022/08/29 03:03:11;;;;;;;44.73;42.07;;;14.30;99.90;;;;;;5052716;28;20192;-76
2022/08/29 03:05:37;;;;;;;49.73;46.47;;;14.20;99.90;;;;;;5052626;28;20617;-76
2022/08/29 03:08:08;;;;;;;41.53;39.00;;;14.20;99.90;;;;;;5043162;28;20207;-77
2022/08/29 03:10:34;;;;;;;38.27;35.63;;;14.30;99.90;;;;;;5033826;28;20182;-76
2022/08/29 03:13:01;;;;;;;41.40;38.67;;;14.30;99.90;;;;;;5033564;28;20563;-76
2022/08/29 03:15:26;;;;;;;37.00;34.37;;;14.20;99.90;;;;;;5043876;28;20190;-76
2022/08/29 03:17:53;;;;;;;30.23;28.13;;;14.20;99.90;;;;;;5033807;28;20218;-76
2022/08/29 03:20:20;;;;;;;32.53;30.23;;;14.20;99.90;;;;;;5032842;28;20182;-77
2022/08/29 03:22:47;;;;;;;26.40;24.30;;;14.20;99.90;;;;;;5035607;28;20183;-76
2022/08/29 03:25:13;;;;;;;36.73;34.47;;;14.20;99.90;;;;;;5037739;28;20174;-75
2022/08/29 03:27:40;;;;;;;35.27;33.00;;;14.10;99.90;;;;;;5038191;28;20332;-77
2022/08/29 03:30:08;;;;;;;29.93;28.13;;;14.10;99.90;;;;;;5053028;28;20248;-78
2022/08/29 03:32:34;;;;;;;37.53;34.90;;;14.10;99.90;;;;;;5053689;28;20193;-75
2022/08/29 03:35:00;;;;;;;61.27;57.07;;;14.10;99.90;;;;;;5052991;28;20273;-75
2022/08/29 03:37:26;;;;;;;56.67;53.37;;;14.10;99.90;;;;;;5050862;28;20305;-75
2022/08/29 03:39:53;;;;;;;55.40;51.83;;;14.10;99.90;;;;;;5052924;28;20232;-75
2022/08/29 03:42:20;;;;;;;36.63;34.00;;;14.00;99.90;;;;;;5052782;28;20228;-75
2022/08/29 03:44:46;;;;;;;28.87;26.60;;;14.00;99.90;;;;;;5051599;28;20182;-75
2022/08/29 03:47:13;;;;;;;20.50;18.50;;;13.90;99.90;;;;;;5067533;23;20241;-73
2022/08/29 03:49:39;;;;;;;19.57;18.03;;;14.00;99.90;;;;;;5049046;28;20195;-73
2022/08/29 03:52:08;;;;;;;19.30;17.80;;;14.00;99.90;;;;;;5032514;28;20174;-73
2022/08/29 03:54:35;;;;;;;18.97;17.27;;;14.00;99.90;;;;;;5019812;28;20210;-73
2022/08/29 03:57:03;;;;;;;31.03;28.80;;;14.00;99.90;;;;;;5029242;28;20218;-74
2022/08/29 03:59:30;;;;;;;61.80;58.00;;;13.90;99.90;;;;;;5024439;28;20667;-72
2022/08/29 04:01:57;;;;;;;63.77;59.87;;;13.90;99.90;;;;;;5032913;28;20182;-73
2022/08/29 04:07:08;;;;;;;26.20;24.20;;;13.80;99.90;;;;;;5032172;28;20281;-72
2022/08/29 04:09:35;;;;;;;23.10;21.00;;;13.80;99.90;;;;;;5032361;28;20194;-73
2022/08/29 04:12:03;;;;;;;28.27;25.87;;;13.80;99.90;;;;;;5033361;28;20199;-74
2022/08/29 04:14:29;;;;;;;20.47;18.73;;;13.80;99.90;;;;;;5032562;28;20240;-73
2022/08/29 04:16:55;;;;;;;29.60;27.47;;;13.70;99.90;;;;;;5032636;28;20695;-73
2022/08/29 04:19:21;;;;;;;28.33;26.10;;;13.70;99.90;;;;;;5031906;28;20277;-74
2022/08/29 04:21:47;;;;;;;23.87;21.97;;;13.60;99.90;;;;;;5032093;28;20232;-74
2022/08/29 04:24:15;;;;;;;20.97;19.27;;;13.60;99.90;;;;;;5034085;28;20612;-74
2022/08/29 04:26:41;;;;;;;17.30;15.80;;;13.60;99.90;;;;;;5032512;28;20190;-73
2022/08/29 04:29:09;;;;;;;21.77;20.20;;;13.60;99.90;;;;;;5032676;28;20205;-73
2022/08/29 04:31:36;;;;;;;21.93;20.23;;;13.60;99.90;;;;;;5032706;28;20194;-73
2022/08/29 04:34:05;;;;;;;20.80;18.97;;;13.60;99.90;;;;;;5033763;28;20294;-73
2022/08/29 04:36:36;;;;;;;16.93;15.47;;;13.60;99.90;;;;;;5032770;28;20719;-73
2022/08/29 04:39:03;;;;;;;18.13;16.73;;;13.60;99.90;;;;;;5032635;28;20238;-73
2022/08/29 04:41:30;;;;;;;19.97;18.47;;;13.60;99.90;;;;;;5032834;28;20245;-73
2022/08/29 04:43:56;;;;;;;21.07;19.03;;;13.70;99.90;;;;;;5031883;28;20281;-72
2022/08/29 04:46:23;;;;;;;21.70;20.00;;;13.70;99.90;;;;;;5033136;28;20189;-73
2022/08/29 04:48:49;;;;;;;21.47;20.03;;;13.70;99.90;;;;;;5030536;28;20211;-72
2022/08/29 04:51:15;;;;;;;28.77;23.33;;;13.70;99.90;;;;;;5031800;28;20186;-72
2022/08/29 04:53:41;;;;;;;24.67;22.67;;;13.70;99.90;;;;;;5031713;28;20182;-73
2022/08/29 04:56:10;;;;;;;24.20;22.50;;;13.70;99.90;;;;;;5032944;28;20190;-73
2022/08/29 04:58:37;;;;;;;25.87;23.60;;;13.70;99.90;;;;;;5035981;28;20210;-73
2022/08/29 05:01:05;;;;;;;26.03;23.87;;;13.70;99.90;;;;;;5041688;28;20651;-73
2022/08/29 05:03:32;;;;;;;26.90;24.57;;;13.80;99.90;;;;;;5050076;28;20187;-73
2022/08/29 05:06:02;;;;;;;27.60;25.47;;;13.80;99.90;;;;;;5034337;28;20201;-72
2022/08/29 05:08:28;;;;;;;29.70;27.50;;;13.90;99.90;;;;;;5032201;28;20210;-73
2022/08/29 05:10:55;;;;;;;23.27;21.43;;;14.00;99.90;;;;;;5033719;28;20613;-73
2022/08/29 05:13:21;;;;;;;44.93;41.93;;;14.10;99.90;;;;;;5033203;28;20183;-73
2022/08/29 05:15:48;;;;;;;88.37;83.17;;;14.20;99.90;;;;;;5031329;28;20766;-73
2022/08/29 05:18:16;;;;;;;23.53;21.20;;;14.30;99.90;;;;;;5030766;28;20214;-73
2022/08/29 05:20:44;;;;;;;196.37;184.80;;;14.50;99.90;;;;;;5033580;28;20201;-73
2022/08/29 05:23:11;;;;;;;246.40;232.60;;;14.70;99.90;;;;;;5031995;28;20277;-74
2022/08/29 05:25:37;;;;;;;155.93;147.03;;;14.90;99.90;;;;;;5032277;28;20178;-74
2022/08/29 05:28:04;;;;;;;31.37;28.73;;;15.10;99.90;;;;;;5031371;28;20199;-73
2022/08/29 05:30:30;;;;;;;16.43;13.43;;;15.40;99.90;;;;;;5033169;28;20213;-73
2022/08/29 05:32:57;;;;;;;44.47;41.37;;;15.60;99.90;;;;;;5031826;28;20195;-74
2022/08/29 05:35:24;;;;;;;52.57;49.37;;;15.80;99.90;;;;;;5033877;28;20221;-74
2022/08/29 05:37:50;;;;;;;35.37;33.00;;;16.00;99.90;;;;;;5032452;28;20221;-74
2022/08/29 05:40:16;;;;;;;16.43;15.30;;;16.30;99.90;;;;;;5032157;28;20547;-73
2022/08/29 05:42:42;;;;;;;14.60;13.30;;;16.50;99.90;;;;;;5032704;28;20183;-74
2022/08/29 05:45:09;;;;;;;22.20;20.20;;;16.80;99.90;;;;;;5026826;28;20183;-74
2022/08/29 05:47:35;;;;;;;23.30;21.70;;;17.10;99.90;;;;;;5037646;28;20214;-74
2022/08/29 05:50:01;;;;;;;28.83;27.03;;;17.40;99.90;;;;;;5030806;28;20233;-74
2022/08/29 05:52:27;;;;;;;29.00;27.17;;;17.70;99.90;;;;;;5030670;28;20199;-73
2022/08/29 05:54:54;;;;;;;29.53;27.67;;;18.00;99.90;;;;;;5031230;28;20183;-74
2022/08/29 05:57:21;;;;;;;30.17;28.27;;;18.30;99.90;;;;;;5031836;28;20682;-74
2022/08/29 05:59:49;;;;;;;50.27;47.47;;;18.60;99.90;;;;;;5030535;28;20186;-74
2022/08/29 06:02:16;;;;;;;32.60;30.10;;;18.90;99.90;;;;;;5032210;28;20226;-73
2022/08/29 06:04:44;;;;;;;13.10;11.97;;;19.00;99.90;;;;;;5031804;28;20182;-74
2022/08/29 06:07:11;;;;;;;11.40;10.60;;;19.30;99.90;;;;;;5031297;28;20207;-74
2022/08/29 06:09:38;;;;;;;12.50;11.30;;;19.40;99.90;;;;;;5033016;28;20191;-74
2022/08/29 06:12:05;;;;;;;15.07;12.53;;;19.70;99.90;;;;;;5032517;28;20194;-74
2022/08/29 06:14:31;;;;;;;12.83;11.53;;;20.10;99.90;;;;;;5031815;28;20205;-74
2022/08/29 06:16:57;;;;;;;28.07;26.23;;;20.40;99.90;;;;;;5030205;28;20203;-74
2022/08/29 06:19:24;;;;;;;48.90;46.00;;;20.70;99.90;;;;;;5032249;28;20757;-73
2022/08/29 06:21:53;;;;;;;233.77;222.03;;;20.90;99.90;;;;;;5030681;28;20666;-73
2022/08/29 06:24:19;;;;;;;296.87;281.93;;;21.20;99.90;;;;;;5032216;28;20179;-74
2022/08/29 06:26:45;;;;;;;197.27;187.47;;;21.30;99.90;;;;;;5031506;28;20183;-74
2022/08/29 06:29:11;;;;;;;168.00;159.65;;;21.60;99.90;;;;;;5030114;28;20195;-73
2022/08/29 06:31:37;;;;;;;149.30;141.70;;;21.70;99.90;;;;;;5031196;28;20260;-74
2022/08/29 06:34:05;;;;;;;104.95;99.22;;;21.70;99.90;;;;;;5033174;28;20785;-74
2022/08/29 06:36:32;;;;;;;98.47;93.23;;;21.60;99.90;;;;;;5035003;28;20183;-73
2022/08/29 06:39:01;;;;;;;50.47;47.40;;;21.70;99.90;;;;;;5034949;28;20195;-74
2022/08/29 06:41:28;;;;;;;16.63;15.45;;;22.00;99.90;;;;;;5035363;28;20211;-74
2022/08/29 06:43:55;;;;;;;14.65;13.57;;;22.40;99.90;;;;;;5035524;28;20171;-73
2022/08/29 06:46:40;;;;;;;15.77;14.18;;;22.80;99.90;;;;;;5035509;28;20186;-74
2022/08/29 06:49:13;;;;;;;13.13;11.65;;;22.90;99.90;;;;;;5052994;28;20246;-73
2022/08/29 06:51:41;;;;;;;16.70;15.23;;;23.00;99.90;;;;;;5033545;28;20179;-74
2022/08/29 06:54:10;;;;;;;14.48;13.57;;;23.30;99.90;;;;;;5035297;28;20252;-74
2022/08/29 06:56:37;;;;;;;15.02;13.73;;;23.60;99.90;;;;;;5033838;28;20260;-77
2022/08/29 06:59:03;;;;;;;18.00;16.38;;;23.60;99.90;;;;;;5033622;28;20198;-73
2022/08/29 07:01:30;;;;;;;16.95;15.48;;;23.50;99.90;;;;;;5033895;28;20183;-74
2022/08/29 07:03:56;;;;;;;21.95;20.65;;;23.40;99.90;;;;;;5033993;28;20636;-74
2022/08/29 07:06:23;;;;;;;24.40;22.48;;;23.90;99.90;;;;;;5033089;28;20221;-75
2022/08/29 07:08:49;;;;;;;22.30;20.58;;;24.30;99.90;;;;;;5024883;28;20218;-74
2022/08/29 07:11:16;;;;;;;18.95;17.58;;;24.40;99.90;;;;;;5016191;28;20190;-73
2022/08/29 07:13:42;;;;;;;14.93;13.55;;;24.40;99.90;;;;;;5030747;28;20644;-74
2022/08/29 07:16:10;;;;;;;16.02;14.70;;;24.30;99.90;;;;;;5033261;28;20185;-74
2022/08/29 07:18:36;;;;;;;15.13;13.80;;;24.50;99.90;;;;;;5032963;28;20207;-74
2022/08/29 07:21:11;;;;;;;13.73;12.68;;;24.60;99.90;;;;;;5034994;28;20194;-73
2022/08/29 07:23:37;;;;;;;13.02;11.95;;;24.80;99.90;;;;;;5034516;28;20217;-73
2022/08/29 07:26:12;;;;;;;10.25;8.63;;;24.80;99.90;;;;;;5035079;28;20203;-73
2022/08/29 07:28:39;;;;;;;9.20;8.38;;;25.00;99.90;;;;;;5034049;28;20202;-74
2022/08/29 07:31:06;;;;;;;9.63;8.18;;;25.20;99.90;;;;;;5033068;28;20175;-73
2022/08/29 07:33:32;;;;;;;9.73;8.88;;;25.40;99.90;;;;;;5034887;28;20237;-73
2022/08/29 07:35:59;;;;;;;11.05;10.10;;;25.40;99.90;;;;;;5034955;28;20648;-73
2022/08/29 07:38:27;;;;;;;11.48;10.38;;;25.40;99.90;;;;;;5032632;28;20215;-74
2022/08/29 07:41:01;;;;;;;11.85;10.75;;;25.60;99.90;;;;;;5033745;28;20186;-74
2022/08/29 07:43:26;;;;;;;11.23;8.98;;;25.80;99.90;;;;;;5033022;28;20266;-74
2022/08/29 07:45:53;;;;;;;12.10;11.20;;;26.10;99.90;;;;;;5034020;28;20711;-74
2022/08/29 07:48:20;;;;;;;10.23;9.23;;;26.10;99.90;;;;;;5032881;28;20268;-74
2022/08/29 07:50:47;;;;;;;12.88;11.52;;;26.10;99.90;;;;;;5034007;28;20183;-74
2022/08/29 07:53:13;;;;;;;10.80;8.90;;;26.50;99.90;;;;;;5033648;28;20580;-73
2022/08/29 07:55:38;;;;;;;12.70;11.52;;;26.70;99.90;;;;;;5034534;28;20179;-74
2022/08/29 07:58:04;;;;;;;12.05;10.95;;;26.90;99.90;;;;;;5032059;28;20219;-74
2022/08/29 08:00:31;;;;;;;11.20;10.23;;;27.10;99.90;;;;;;5033439;28;20183;-73
2022/08/29 08:02:57;;;;;;;9.35;8.55;;;27.10;99.90;;;;;;5033350;28;20260;-74
2022/08/29 08:05:23;;;;;;;9.85;9.05;;;27.20;99.90;;;;;;5049835;28;20183;-73
2022/08/29 08:07:49;;;;;;;9.18;8.38;;;27.00;99.90;;;;;;5050084;28;20215;-74
2022/08/29 08:10:19;;;;;;;11.52;10.43;;;26.80;99.90;;;;;;5050465;28;20211;-74
2022/08/29 08:12:50;;;;;;;10.23;8.55;;;26.80;99.90;;;;;;5050225;28;20191;-74
2022/08/29 08:15:16;;;;;;;10.68;9.50;;;26.80;99.90;;;;;;5033748;28;20244;-74
2022/08/29 08:17:43;;;;;;;11.70;10.57;;;26.50;99.90;;;;;;5033203;28;20241;-74
2022/08/29 08:20:10;;;;;;;12.25;11.35;;;26.70;99.90;;;;;;5034111;28;20179;-74
2022/08/29 08:22:36;;;;;;;11.10;10.18;;;27.00;99.90;;;;;;5031670;28;20179;-72
2022/08/29 08:25:04;;;;;;;10.32;9.60;;;27.30;99.90;;;;;;5018123;28;20187;-74
2022/08/29 08:27:30;;;;;;;9.50;8.38;;;27.90;99.90;;;;;;5013402;28;20219;-74
2022/08/29 08:29:57;;;;;;;7.97;7.28;;;28.10;99.90;;;;;;5040476;28;20186;-74
2022/08/29 08:32:23;;;;;;;8.43;7.70;;;28.30;99.90;;;;;;5039027;28;20194;-74
2022/08/29 08:34:49;;;;;;;11.55;10.40;;;28.40;99.90;;;;;;5034798;28;20191;-75
2022/08/29 08:37:16;;;;;;;10.05;9.25;;;28.60;99.90;;;;;;5034634;28;20305;-74
2022/08/29 08:39:42;;;;;;;12.95;12.10;;;29.00;99.90;;;;;;5033760;28;20676;-74
2022/08/29 08:42:45;;;;;;;13.40;12.20;;;29.00;99.90;;;;;;5032236;28;20601;-74
2022/08/29 08:45:25;;;;;;;12.10;11.10;;;28.40;99.90;;;;;;5032089;28;20623;-73
2022/08/29 08:47:57;;;;;;;13.35;12.35;;;28.20;99.90;;;;;;5031883;28;20217;-72
2022/08/29 08:50:36;;;;;;;16.70;15.45;;;28.50;99.90;;;;;;5032741;28;20179;-73
2022/08/29 08:53:12;;;;;;;20.52;19.05;;;29.00;99.30;;;;;;5030851;28;20205;-72
2022/08/29 08:55:41;;;;;;;19.13;17.75;;;29.10;98.90;;;;;;5032915;28;20188;-73
2022/08/29 08:58:25;;;;;;;22.52;20.92;;;28.80;99.30;;;;;;5030624;28;20242;-73
2022/08/29 09:00:59;;;;;;;13.82;12.63;;;28.30;99.20;;;;;;5031972;28;20191;-73
2022/08/29 09:03:57;;;;;;;30.77;28.77;;;28.80;99.00;;;;;;5048060;28;20186;-72
2022/08/29 09:06:44;;;;;;;29.67;27.98;;;28.90;97.40;;;;;;5048053;28;20211;-75
2022/08/29 09:09:36;;;;;;;38.72;36.55;;;29.00;97.40;;;;;;5032326;28;20295;-73
2022/08/29 09:12:16;;;;;;;31.13;28.63;;;29.40;96.50;;;;;;5032750;28;20175;-73
2022/08/29 09:14:42;;;;;;;25.40;23.92;;;29.70;94.70;;;;;;5048725;28;20269;-73
2022/08/29 09:17:19;;;;;;;20.13;18.80;;;29.80;94.50;;;;;;5047575;28;20245;-74
2022/08/29 09:19:47;;;;;;;24.83;23.38;;;29.80;93.80;;;;;;5033106;28;20210;-72
2022/08/29 09:22:26;;;;;;;23.25;21.83;;;29.70;93.70;;;;;;5017938;28;20250;-72
2022/08/29 09:24:58;;;;;;;28.90;27.20;;;29.10;94.70;;;;;;5046927;28;20285;-73
2022/08/29 09:27:27;;;;;;;25.42;21.20;;;29.70;94.30;;;;;;5045590;28;20290;-72
2022/08/29 09:30:00;;;;;;;26.92;25.13;;;29.90;93.80;;;;;;5032221;28;20277;-73
2022/08/29 09:32:26;;;;;;;24.55;23.00;;;29.70;93.20;;;;;;5048070;28;20187;-73
2022/08/29 09:34:53;;;;;;;25.58;23.92;;;29.80;93.60;;;;;;5047697;28;20187;-73
2022/08/29 09:37:27;;;;;;;23.35;22.05;;;30.10;93.00;;;;;;5031800;28;20215;-73
2022/08/29 09:40:02;;;;;;;32.88;30.83;;;30.60;94.20;;;;;;5033794;28;20183;-73
2022/08/29 09:42:31;;;;;;;27.95;26.35;;;30.90;92.50;;;;;;5032969;28;20224;-73
2022/08/29 09:45:07;;;;;;;20.75;19.55;;;31.10;91.40;;;;;;5033162;28;20175;-73
2022/08/29 09:47:34;;;;;;;17.30;16.20;;;31.10;91.60;;;;;;5047538;23;20594;-77
2022/08/29 09:50:05;;;;;;;35.03;33.08;;;31.10;91.60;;;;;;4993863;28;20181;-79
2022/08/29 09:52:31;;;;;;;26.17;24.65;;;31.10;92.20;;;;;;4994326;28;20557;-79
2022/08/29 09:55:21;;;;;;;32.75;30.85;;;31.20;91.40;;;;;;4994378;28;20183;-79
2022/08/29 09:57:54;;;;;;;13.48;12.43;;;31.50;91.30;;;;;;4999047;28;20223;-79
2022/08/29 10:00:29;;;;;;;11.10;10.30;;;32.00;90.00;;;;;;5014518;28;20650;-79
2022/08/29 10:02:58;;;;;;;15.02;14.02;;;32.20;87.40;;;;;;5015349;28;20660;-78
2022/08/29 10:05:35;;;;;;;11.18;10.30;;;32.60;88.20;;;;;;5016719;28;20180;-77
2022/08/29 10:08:04;;;;;;;9.60;8.45;;;32.40;86.30;;;;;;5013123;28;20230;-77
2022/08/29 10:10:35;;;;;;;10.73;9.70;;;32.70;84.10;;;;;;5014422;28;20180;-78
2022/08/29 10:13:14;;;;;;;7.30;6.53;;;32.70;84.20;;;;;;5017471;28;20191;-78
2022/08/29 10:15:56;;;;;;;7.00;6.40;;;32.80;83.40;;;;;;5017191;28;20272;-78
2022/08/29 10:18:48;;;;;;;11.73;10.93;;;32.60;82.80;;;;;;5014507;28;20216;-78
2022/08/29 10:21:23;;;;;;;12.45;11.38;;;31.90;85.00;;;;;;5019052;28;20582;-78
2022/08/29 10:24:05;;;;;;;8.40;7.70;;;32.50;84.70;;;;;;5020470;28;20229;-79
2022/08/29 10:27:02;;;;;;;8.27;7.22;;;33.00;79.80;;;;;;5017374;28;20192;-78
2022/08/29 10:29:46;;;;;;;7.10;6.55;;;33.20;82.30;;;;;;5017906;28;20200;-79
2022/08/29 10:32:50;;;;;;;25.15;23.35;;;33.60;81.60;;;;;;5018461;28;20558;-78
2022/08/29 10:35:22;;;;;;;13.82;13.02;;;34.20;76.50;;;;;;5019421;28;20211;-77
2022/08/29 10:38:08;;;;;;;13.23;12.43;;;34.80;74.50;;;;;;5020021;28;20223;-79
2022/08/29 10:41:00;;;;;;;14.73;13.75;;;34.60;74.40;;;;;;5018559;28;20226;-79
2022/08/29 10:43:29;;;;;;;25.40;23.80;;;35.00;73.20;;;;;;5017680;28;20565;-79
2022/08/29 10:46:13;;;;;;;68.88;65.38;;;35.00;73.70;;;;;;5017040;28;20172;-78
2022/08/29 10:48:47;;;;;;;365.80;346.23;;;34.90;72.90;;;;;;5019684;28;20215;-77
2022/08/29 10:51:16;;;;;;;196.88;186.45;;;35.20;69.00;;;;;;5006595;28;20191;-77
2022/08/29 10:54:10;;;;;;;102.03;96.97;;;34.20;71.00;;;;;;4999526;28;20270;-77
2022/08/29 10:56:42;;;;;;;97.85;92.75;;;34.00;71.90;;;;;;4973015;28;20192;-78
2022/08/29 10:59:19;;;;;;;20.90;19.58;;;34.00;69.80;;;;;;5014007;28;20204;-77
2022/08/29 11:01:52;;;;;;;90.10;85.53;;;34.10;71.80;;;;;;5019580;28;20187;-77
2022/08/29 11:04:28;;;;;;;9.60;8.90;;;34.40;69.20;;;;;;5019673;28;20601;-77
2022/08/29 11:07:05;;;;;;;7.28;6.57;;;33.40;72.30;;;;;;5018302;28;20190;-78
2022/08/29 11:09:41;;;;;;;5.43;5.03;;;33.30;71.30;;;;;;5015292;28;20208;-78
2022/08/29 11:12:14;;;;;;;10.02;9.27;;;32.60;70.90;;;;;;5015661;28;20187;-77
2022/08/29 11:14:55;;;;;;;15.75;14.75;;;32.30;71.90;;;;;;5016245;28;20676;-78
2022/08/29 11:17:24;;;;;;;12.07;11.27;;;32.30;72.70;;;;;;5019291;28;20222;-78
2022/08/29 11:20:03;;;;;;;15.73;14.60;;;32.70;71.10;;;;;;5015264;28;20196;-78
2022/08/29 11:22:39;;;;;;;13.65;12.68;;;32.40;71.90;;;;;;5013357;28;20186;-79
2022/08/29 11:25:10;;;;;;;9.35;7.45;;;33.10;69.70;;;;;;5016452;28;20210;-79
2022/08/29 11:28:21;;;;;;;25.00;23.40;;;33.90;66.90;;;;;;5014746;28;20349;-78
2022/08/29 11:31:11;;;;;;;45.55;43.10;;;33.80;66.90;;;;;;5014518;28;20221;-78
2022/08/29 11:34:13;;;;;;;144.85;137.63;;;34.40;66.00;;;;;;5014720;28;20191;-78
2022/08/29 11:36:58;;;;;;;338.38;320.67;;;35.10;62.90;;;;;;5014298;28;20563;-79
2022/08/29 11:39:47;;;;;;;354.10;335.33;;;35.40;60.60;;;;;;5013906;28;20203;-78
2022/08/29 11:42:16;;;;;;;309.05;293.50;;;35.00;60.50;;;;;;5015742;28;20277;-78
2022/08/29 11:44:51;;;;;;;314.35;298.00;;;34.10;62.50;;;;;;5016334;28;20550;-78
2022/08/29 11:47:32;;;;;;;315.33;298.88;;;33.90;63.10;;;;;;5015562;28;20183;-78
2022/08/29 11:50:21;;;;;;;350.08;331.90;;;33.80;61.50;;;;;;5014561;28;20645;-79
2022/08/29 11:53:11;;;;;;;304.42;289.05;;;34.60;59.00;;;;;;5016192;28;20569;-78
2022/08/29 11:55:40;;;;;;;228.13;216.93;;;35.60;55.80;;;;;;5016450;28;20183;-77
2022/08/29 11:58:12;;;;;;;247.55;234.85;;;35.90;55.10;;;;;;5015655;28;20262;-78
2022/08/29 12:00:41;;;;;;;273.83;260.17;;;35.90;56.00;;;;;;5017067;28;20186;-79
2022/08/29 12:03:32;;;;;;;218.55;207.80;;;36.30;55.90;;;;;;5018382;28;20195;-79
2022/08/29 12:06:20;;;;;;;240.95;229.00;;;36.40;55.60;;;;;;5014991;28;20215;-79
2022/08/29 12:09:11;;;;;;;272.33;258.60;;;35.70;55.40;;;;;;5015274;28;20703;-79
2022/08/29 12:12:06;;;;;;;311.40;295.10;;;35.60;56.20;;;;;;5015800;28;20184;-79
2022/08/29 12:14:39;;;;;;;263.45;250.52;;;35.40;56.80;;;;;;5015185;28;20203;-79
2022/08/29 12:17:25;;;;;;;249.63;237.23;;;35.90;54.40;;;;;;5014552;28;20237;-79
2022/08/29 12:19:55;;;;;;;263.80;250.63;;;35.80;55.10;;;;;;5010412;28;20222;-78
2022/08/29 12:22:52;;;;;;;220.82;209.77;;;35.80;54.60;;;;;;4996249;28;20231;-79
2022/08/29 12:25:27;;;;;;;189.50;179.93;;;36.10;55.10;;;;;;5002069;28;20188;-79
2022/08/29 12:28:14;;;;;;;210.55;200.35;;;36.30;54.50;;;;;;4996524;28;20230;-79
2022/08/29 12:30:45;;;;;;;291.02;276.42;;;36.90;53.40;;;;;;4997048;28;20184;-79
2022/08/29 12:33:35;;;;;;;185.43;176.23;;;37.10;55.40;;;;;;4994203;28;20193;-79
2022/08/29 12:36:25;;;;;;;260.77;247.80;;;37.50;52.50;;;;;;5000006;28;20238;-78
2022/08/29 12:39:22;;;;;;;305.30;289.70;;;35.60;55.10;;;;;;4993996;28;20216;-79
2022/08/29 12:42:16;;;;;;;355.13;336.58;;;34.60;55.40;;;;;;4995389;28;20192;-78
2022/08/29 12:44:56;;;;;;;347.77;329.73;;;33.30;57.70;;;;;;4996418;28;20219;-77
2022/08/29 12:47:30;;;;;;;98.63;93.82;;;32.40;59.70;;;;;;4994482;28;20200;-80
2022/08/29 12:50:01;;;;;;;6.55;6.05;;;31.20;61.50;;;;;;4994097;28;20248;-79
2022/08/29 12:52:33;;;;;;;9.40;8.88;;;30.00;65.60;;;;;;4994363;28;20188;-79